Woodsetts, United Kingdom
Current Conditions -  °F | °C
As of 6:20 AM on Monday 22 Dec 2014 (Local Time) from EGCN Reporting Station
Overcast Overcast  
Wind Chill: 13°   Ceiling: 2500
Heat Index: 13°   Visibility: 6mi
Dew Point:   Wind: 22mph
Humidity: 77%   Direction: 210°SSW
Pressure: 29.8"   Gusts: NA
Location:  53.35°N, 1.17°W
Report Text: EGCN 220620Z 21019KT 9999 BKN025 BKN031 OVC049 13/09 Q1009
Loading
Personal Weather Stations






























Interactive Weather Map New forecast layout! Learn more

10-Day Weather Forecast

Advertisements
Track Severe Weather on mobile